createdAt,value
2023-01-12T00:01:59.068Z,17.52
2023-01-12T00:04:26.753Z,17.52
2023-01-12T00:06:54.889Z,17.53
2023-01-12T00:09:22.625Z,17.53
2023-01-12T00:11:50.385Z,17.53
2023-01-12T00:14:20.344Z,17.52
2023-01-12T01:02:13.367Z,17.51
2023-01-12T01:04:41.318Z,17.52
2023-01-12T01:07:09.142Z,17.53
2023-01-12T01:09:36.863Z,17.53
2023-01-12T01:12:04.516Z,17.53
2023-01-12T01:14:32.213Z,17.53
2023-01-12T02:00:54.144Z,17.46
2023-01-12T02:03:22.337Z,17.46
2023-01-12T02:05:50.411Z,17.46
2023-01-12T02:08:19.187Z,17.48
2023-01-12T02:10:46.788Z,17.48
2023-01-12T02:13:31.915Z,17.48
2023-01-12T03:02:57.017Z,17.46
2023-01-12T03:05:27.252Z,17.46
2023-01-12T03:07:55.195Z,17.45
2023-01-12T03:10:34.309Z,17.44
2023-01-12T03:13:06.081Z,17.44
2023-01-12T04:02:24.204Z,17.30
2023-01-12T04:04:51.882Z,17.32
2023-01-12T04:07:19.486Z,17.33
2023-01-12T04:09:47.093Z,17.32
2023-01-12T04:12:13.731Z,17.34
2023-01-12T04:14:41.698Z,17.33
2023-01-12T04:53:25.180Z,17.28
2023-01-12T04:55:52.870Z,17.28
2023-01-12T04:58:20.517Z,17.28
2023-01-12T05:00:48.250Z,17.29
2023-01-12T05:03:16.090Z,17.29
2023-01-12T05:05:43.720Z,17.30
2023-01-12T05:08:28.955Z,17.27
2023-01-12T05:10:58.308Z,17.28
2023-01-12T05:13:26.275Z,17.26
2023-01-12T05:21:47.425Z,17.23
2023-01-12T05:24:15.037Z,17.15
2023-01-12T05:26:43.991Z,17.13
2023-01-12T05:29:12.136Z,17.15
2023-01-12T05:31:40.318Z,17.15
2023-01-12T05:34:08.142Z,17.17
2023-01-12T05:36:35.728Z,17.18
2023-01-12T05:39:03.372Z,17.19
2023-01-12T05:41:30.962Z,17.18
2023-01-12T05:43:58.957Z,17.21
2023-01-12T05:46:27.223Z,17.19
2023-01-12T05:48:55.391Z,17.19
2023-01-12T05:51:23.138Z,17.18
2023-01-12T05:53:50.711Z,17.22
2023-01-12T05:56:18.777Z,17.26
2023-01-12T05:58:49.756Z,17.27
2023-01-12T06:01:18.745Z,17.28
2023-01-12T06:03:49.056Z,17.27
2023-01-12T06:06:16.730Z,17.30
2023-01-12T06:08:44.343Z,17.31
2023-01-12T06:11:32.260Z,17.32
2023-01-12T06:13:58.898Z,17.32
2023-01-12T06:31:08.061Z,17.32
2023-01-12T06:33:35.730Z,17.32
2023-01-12T06:36:03.373Z,17.32
2023-01-12T06:38:31.405Z,17.32
2023-01-12T06:41:02.094Z,17.32
2023-01-12T06:43:29.708Z,17.31
2023-01-12T06:45:57.623Z,17.32
2023-01-12T06:48:26.880Z,17.30
2023-01-12T06:51:07.021Z,17.30
2023-01-12T06:53:34.629Z,17.30
2023-01-12T06:56:02.223Z,17.25
2023-01-12T06:58:29.819Z,17.24
2023-01-12T07:01:01.474Z,17.26
2023-01-12T07:03:30.538Z,17.26
2023-01-12T07:05:58.927Z,17.24
2023-01-12T07:08:26.642Z,17.25
2023-01-12T07:10:54.380Z,17.27
2023-01-12T07:13:22.036Z,17.25
2023-01-12T07:15:49.696Z,17.25
2023-01-12T07:18:17.668Z,17.23
2023-01-12T07:20:48.650Z,17.25
2023-01-12T07:23:16.223Z,17.24
2023-01-12T07:25:44.031Z,17.22
2023-01-12T07:28:11.841Z,17.25
2023-01-12T07:30:39.488Z,17.26
2023-01-12T07:33:07.411Z,17.25
2023-01-12T07:35:35.015Z,17.25
2023-01-12T07:38:03.935Z,17.24
2023-01-12T07:40:31.552Z,17.24
2023-01-12T07:42:59.595Z,17.27
2023-01-12T07:45:27.295Z,17.30
2023-01-12T07:47:54.942Z,17.33
2023-01-12T07:50:22.529Z,17.34
2023-01-12T07:52:50.306Z,17.35
2023-01-12T07:55:19.734Z,17.34
2023-01-12T07:57:54.226Z,17.32
2023-01-12T08:06:07.043Z,17.35
2023-01-12T08:08:34.691Z,17.36
2023-01-12T08:11:04.189Z,17.37
2023-01-12T08:13:31.768Z,17.38
2023-01-12T08:16:02.862Z,17.39
2023-01-12T08:18:31.488Z,17.41
2023-01-12T08:20:59.509Z,17.42
2023-01-12T08:23:27.731Z,17.41
2023-01-12T08:25:56.526Z,17.42
2023-01-12T08:28:26.147Z,17.43
2023-01-12T08:30:53.700Z,17.43
2023-01-12T08:33:21.326Z,17.42
2023-01-12T08:35:48.934Z,17.42
2023-01-12T08:38:16.530Z,17.43
2023-01-12T08:41:01.650Z,17.42
2023-01-12T08:43:48.335Z,17.41
2023-01-12T08:46:15.979Z,17.43
2023-01-12T08:48:43.860Z,17.43
2023-01-12T08:51:11.453Z,17.43
2023-01-12T08:53:39.052Z,17.42
2023-01-12T08:56:07.263Z,17.41
2023-01-12T08:58:36.220Z,17.38
2023-01-12T09:01:07.770Z,17.38
2023-01-12T09:03:35.611Z,17.34
2023-01-12T09:06:09.331Z,17.34
2023-01-12T09:08:36.939Z,17.35
2023-01-12T09:11:04.713Z,17.37
2023-01-12T09:13:33.284Z,17.37
2023-01-12T09:16:12.384Z,17.39
2023-01-12T09:18:40.720Z,17.40
2023-01-12T09:21:08.921Z,17.39
2023-01-12T09:23:36.566Z,17.39
2023-01-12T09:26:04.997Z,17.42
2023-01-12T09:28:32.642Z,17.38
2023-01-12T09:31:05.258Z,17.38
2023-01-12T09:33:32.978Z,17.39
2023-01-12T09:36:01.001Z,17.42
2023-01-12T09:38:28.594Z,17.39
2023-01-12T09:40:56.890Z,17.41
2023-01-12T09:43:42.090Z,17.42
2023-01-12T09:46:33.095Z,17.42
2023-01-12T09:49:00.742Z,17.42
2023-01-12T09:51:29.402Z,17.43
2023-01-12T09:53:57.147Z,17.44
2023-01-12T09:56:27.074Z,17.44
2023-01-12T09:59:08.450Z,17.45
2023-01-12T10:01:37.502Z,17.43
2023-01-12T10:04:05.403Z,17.39
2023-01-12T10:06:33.306Z,17.41
2023-01-12T10:09:01.258Z,17.44
2023-01-12T10:11:29.643Z,17.43
2023-01-12T10:14:02.738Z,17.43
2023-01-12T10:16:32.483Z,17.42
2023-01-12T10:19:02.283Z,17.39
2023-01-12T10:21:30.044Z,17.42
2023-01-12T10:23:57.678Z,17.44
2023-01-12T10:26:25.614Z,17.44
2023-01-12T10:28:55.015Z,17.41
2023-01-12T10:31:23.683Z,17.42
2023-01-12T10:34:06.925Z,17.42
2023-01-12T10:36:34.726Z,17.42
2023-01-12T10:39:03.553Z,17.37
2023-01-12T10:41:31.337Z,17.36
2023-01-12T10:44:13.649Z,17.34
2023-01-12T10:46:41.276Z,17.29
2023-01-12T10:49:17.610Z,17.30
2023-01-12T10:51:52.281Z,17.34
2023-01-12T10:54:20.285Z,17.35
2023-01-12T10:56:54.493Z,17.33
2023-01-12T10:59:23.093Z,17.34
2023-01-12T11:01:51.292Z,17.37
2023-01-12T11:04:22.142Z,17.41
2023-01-12T11:07:02.785Z,17.42
2023-01-12T11:09:31.724Z,17.41
2023-01-12T11:11:59.975Z,17.39
2023-01-12T11:14:28.952Z,17.37
2023-01-12T11:16:57.976Z,17.33
2023-01-12T11:19:27.470Z,17.34
2023-01-12T11:21:55.517Z,17.37
2023-01-12T11:24:29.360Z,17.38
2023-01-12T11:26:57.141Z,17.29
2023-01-12T11:29:30.218Z,17.31
2023-01-12T11:31:58.451Z,17.29
2023-01-12T11:34:29.295Z,17.26
2023-01-12T11:37:02.244Z,17.26
2023-01-12T11:39:29.999Z,17.25
2023-01-12T11:42:15.781Z,17.29
2023-01-12T11:44:44.590Z,17.30
2023-01-12T11:47:12.476Z,17.27
2023-01-12T11:49:42.471Z,17.24
2023-01-12T11:52:10.162Z,17.23
2023-01-12T11:54:37.847Z,17.19
2023-01-12T11:57:24.139Z,17.18
2023-01-12T11:59:55.015Z,17.14
2023-01-12T12:02:26.583Z,17.19
2023-01-12T12:04:56.951Z,17.22
2023-01-12T12:07:31.738Z,17.19
2023-01-12T12:10:01.835Z,17.17
2023-01-12T12:12:31.734Z,17.21
2023-01-12T12:15:05.583Z,17.26
2023-01-12T12:17:35.856Z,17.28
2023-01-12T12:20:07.322Z,17.23
2023-01-12T12:22:38.379Z,17.21
2023-01-12T12:25:16.595Z,17.17
2023-01-12T12:27:48.765Z,17.14
2023-01-12T12:30:25.946Z,17.16
2023-01-12T12:32:54.570Z,17.16
2023-01-12T12:35:30.140Z,17.12
2023-01-12T12:38:01.031Z,17.08
2023-01-12T12:40:55.182Z,17.10
2023-01-12T12:43:41.491Z,17.10
2023-01-12T12:46:10.604Z,17.10
2023-01-12T12:48:39.863Z,17.12
2023-01-12T12:51:09.894Z,17.08
2023-01-12T12:53:38.897Z,17.05
2023-01-12T12:56:08.583Z,17.09
2023-01-12T12:58:41.132Z,17.12
2023-01-12T13:01:27.974Z,17.11
2023-01-12T13:03:55.657Z,17.09
2023-01-12T13:06:25.229Z,17.11
2023-01-12T13:08:53.215Z,17.12
2023-01-12T13:11:20.971Z,17.15
2023-01-12T13:13:58.621Z,17.13
2023-01-12T13:16:41.242Z,17.12
2023-01-12T13:19:13.486Z,17.13
2023-01-12T13:21:56.373Z,17.09
2023-01-12T13:24:27.655Z,17.10
2023-01-12T13:26:57.723Z,17.09
2023-01-12T13:29:41.201Z,17.08
2023-01-12T13:32:27.586Z,17.07
2023-01-12T13:34:55.324Z,17.08
2023-01-12T13:37:25.275Z,17.10
2023-01-12T13:39:53.558Z,17.10
2023-01-12T13:42:38.954Z,17.12
2023-01-12T13:45:10.440Z,17.14
2023-01-12T13:47:38.147Z,17.09
2023-01-12T13:50:06.099Z,17.08
2023-01-12T13:52:37.067Z,17.08
2023-01-12T13:55:05.912Z,17.09
2023-01-12T13:57:33.543Z,17.09
2023-01-12T14:00:04.570Z,17.08
2023-01-12T14:02:39.755Z,17.11
2023-01-12T14:05:12.820Z,17.11
2023-01-12T14:07:44.626Z,17.10
2023-01-12T14:10:19.049Z,17.07
2023-01-12T14:12:53.483Z,17.05
2023-01-12T14:15:42.163Z,17.01
2023-01-12T14:18:10.473Z,17.06
2023-01-12T14:20:45.238Z,17.06
2023-01-12T14:23:23.955Z,17.10
2023-01-12T14:26:07.827Z,17.14
2023-01-12T14:28:35.661Z,17.16
2023-01-12T14:31:03.372Z,17.17
2023-01-12T14:33:33.634Z,17.15
2023-01-12T14:36:03.559Z,17.13
2023-01-12T14:38:34.164Z,17.12
2023-01-12T14:41:02.829Z,17.14
2023-01-12T14:43:48.818Z,17.14
2023-01-12T14:46:27.936Z,17.16
2023-01-12T14:48:56.966Z,17.17
2023-01-12T14:51:25.639Z,17.19
2023-01-12T14:53:57.789Z,17.19
2023-01-12T14:56:26.368Z,17.16
2023-01-12T14:58:53.954Z,17.13
2023-01-12T15:04:16.516Z,17.17
2023-01-12T15:06:44.235Z,17.17
2023-01-12T15:09:25.238Z,17.17
2023-01-12T15:11:52.871Z,17.16
2023-01-12T15:14:21.603Z,17.17
2023-01-12T15:17:06.488Z,17.18
2023-01-12T15:19:51.797Z,17.20
2023-01-12T15:22:36.717Z,17.17
2023-01-12T15:25:26.443Z,17.16
2023-01-12T15:27:54.088Z,17.18
2023-01-12T15:30:21.739Z,17.17
2023-01-12T15:32:49.428Z,17.19
2023-01-12T15:35:17.680Z,17.21
2023-01-12T15:37:45.414Z,17.18
2023-01-12T15:40:15.116Z,17.17
2023-01-12T15:42:42.865Z,17.15
2023-01-12T15:45:15.098Z,17.17
2023-01-12T15:47:42.729Z,17.19
2023-01-12T15:50:10.822Z,17.23
2023-01-12T15:52:38.460Z,17.26
2023-01-12T15:55:07.449Z,17.27
2023-01-12T15:57:37.778Z,17.17
2023-01-12T16:00:05.812Z,17.23
2023-01-12T16:02:36.478Z,17.26
2023-01-12T16:05:04.382Z,17.25
2023-01-12T16:07:32.369Z,17.23
2023-01-12T16:10:00.025Z,17.18
2023-01-12T16:12:28.057Z,17.18
2023-01-12T16:14:58.638Z,17.23
2023-01-12T16:17:26.463Z,17.22
2023-01-12T16:19:54.186Z,17.21
2023-01-12T16:22:22.277Z,17.20
2023-01-12T16:24:50.245Z,17.20
2023-01-12T16:27:17.957Z,17.22
2023-01-12T16:29:45.919Z,17.25
2023-01-12T16:32:15.224Z,17.27
2023-01-12T16:34:42.834Z,17.17
2023-01-12T16:37:11.916Z,17.03
2023-01-12T16:39:39.617Z,17.05
2023-01-12T16:42:07.251Z,17.11
2023-01-12T16:44:37.317Z,17.15
2023-01-12T16:47:05.217Z,17.16
2023-01-12T16:49:35.935Z,17.17
2023-01-12T16:52:04.140Z,17.18
2023-01-12T16:54:33.315Z,17.18
2023-01-12T16:57:00.962Z,17.21
2023-01-12T16:59:29.471Z,17.21
2023-01-12T17:01:57.242Z,17.23
2023-01-12T17:04:25.055Z,17.24
2023-01-12T17:06:54.190Z,17.19
2023-01-12T17:09:21.858Z,17.19
2023-01-12T17:11:50.490Z,17.17
2023-01-12T17:14:24.330Z,17.17
2023-01-12T17:16:52.269Z,17.18
2023-01-12T17:19:20.019Z,17.19
2023-01-12T17:21:48.361Z,17.20
2023-01-12T17:24:20.109Z,17.19
2023-01-12T17:26:49.654Z,17.16
2023-01-12T17:29:17.347Z,17.18
2023-01-12T17:31:45.048Z,17.19
2023-01-12T17:34:13.286Z,17.16
2023-01-12T17:36:40.867Z,17.17
2023-01-12T17:39:08.467Z,17.19
2023-01-12T17:41:55.023Z,17.20
2023-01-12T17:44:22.642Z,17.23
2023-01-12T17:46:50.271Z,17.27
2023-01-12T17:49:18.446Z,17.25
2023-01-12T17:51:46.089Z,17.26
2023-01-12T17:54:13.981Z,17.27
2023-01-12T17:56:43.005Z,17.26
2023-01-12T17:59:12.446Z,17.27
2023-01-12T18:01:41.698Z,17.26
2023-01-12T18:04:10.109Z,17.23
2023-01-12T18:06:37.783Z,17.23
2023-01-12T18:09:05.468Z,17.26
2023-01-12T18:11:33.370Z,17.28
2023-01-12T18:14:02.461Z,17.26
2023-01-12T18:16:30.107Z,17.28
2023-01-12T18:18:57.780Z,17.27
2023-01-12T18:21:25.726Z,17.25
2023-01-12T18:23:53.304Z,17.25
2023-01-12T18:26:21.644Z,17.24
2023-01-12T18:28:49.209Z,17.25
2023-01-12T18:31:18.841Z,17.26
2023-01-12T18:33:47.582Z,17.29
2023-01-12T18:36:15.970Z,17.28
2023-01-12T18:38:43.570Z,17.27
2023-01-12T18:41:28.885Z,17.29
2023-01-12T18:43:56.492Z,17.30
2023-01-12T18:46:49.598Z,17.30
2023-01-12T18:49:19.735Z,17.27
2023-01-12T18:52:04.974Z,17.26
2023-01-12T18:54:32.847Z,17.26
2023-01-12T18:57:00.383Z,17.27
2023-01-12T18:59:29.016Z,17.29
2023-01-12T19:01:58.096Z,17.30
2023-01-12T19:04:37.583Z,17.27
2023-01-12T19:07:05.267Z,17.25
2023-01-12T19:09:35.037Z,17.28
2023-01-12T19:12:02.731Z,17.21
2023-01-12T19:14:47.938Z,17.27
2023-01-12T19:17:29.763Z,17.29
2023-01-12T19:19:57.736Z,17.28
2023-01-12T19:22:43.017Z,17.25
2023-01-12T19:25:29.526Z,17.26
2023-01-12T19:28:15.710Z,17.23
2023-01-12T19:30:43.313Z,17.23
2023-01-12T19:33:12.272Z,17.27
2023-01-12T19:35:41.704Z,17.29
2023-01-12T19:38:09.402Z,17.26
2023-01-12T19:40:44.533Z,17.25
2023-01-12T19:43:12.820Z,17.28
2023-01-12T19:45:40.757Z,17.29
2023-01-12T19:48:08.508Z,17.29
2023-01-12T19:50:37.569Z,17.28
2023-01-12T19:53:05.402Z,17.24
2023-01-12T19:55:33.143Z,17.26
2023-01-12T19:58:01.026Z,17.28
2023-01-12T20:00:28.634Z,17.29
2023-01-12T20:02:56.216Z,17.29
2023-01-12T20:05:24.309Z,17.27
2023-01-12T20:07:53.496Z,17.23
2023-01-12T20:10:21.301Z,17.24
2023-01-12T20:12:49.509Z,17.26
2023-01-12T20:15:18.106Z,17.26
2023-01-12T20:17:45.931Z,17.30
2023-01-12T20:20:13.649Z,17.31
2023-01-12T20:22:41.268Z,17.28
2023-01-12T20:25:10.415Z,17.30
2023-01-12T20:27:38.123Z,17.31
2023-01-12T20:30:06.323Z,17.33
2023-01-12T20:32:35.607Z,17.32
2023-01-12T20:35:03.716Z,17.34
2023-01-12T20:37:31.262Z,17.32
2023-01-12T20:39:58.876Z,17.31
2023-01-12T20:42:29.246Z,17.32
2023-01-12T20:44:57.623Z,17.31
2023-01-12T20:47:25.983Z,17.30
2023-01-12T20:49:53.635Z,17.28
2023-01-12T20:52:21.427Z,17.27
2023-01-12T20:54:49.185Z,17.28
2023-01-12T20:57:16.825Z,17.29
2023-01-12T20:59:45.767Z,17.31
2023-01-12T21:02:15.642Z,17.31
2023-01-12T21:04:43.244Z,17.32
2023-01-12T21:07:10.862Z,17.31
2023-01-12T21:09:38.434Z,17.31
2023-01-12T21:12:06.276Z,17.35
2023-01-12T21:14:34.140Z,17.36
2023-01-12T21:17:03.283Z,17.39
2023-01-12T21:19:30.879Z,17.38
2023-01-12T21:21:58.498Z,17.37
2023-01-12T21:24:26.473Z,17.37
2023-01-12T21:26:54.890Z,17.33
2023-01-12T21:29:22.546Z,17.24
2023-01-12T21:31:50.470Z,17.31
2023-01-12T21:34:19.447Z,17.34
2023-01-12T21:36:47.123Z,17.35
2023-01-12T21:39:14.754Z,17.39
2023-01-12T21:41:59.679Z,17.37
2023-01-12T21:44:27.580Z,17.38
2023-01-12T21:46:55.542Z,17.37
2023-01-12T21:49:24.789Z,17.34
2023-01-12T21:51:52.441Z,17.35
2023-01-12T21:54:20.326Z,17.37
2023-01-12T21:56:47.959Z,17.38
2023-01-12T21:59:15.722Z,17.35
2023-01-12T22:01:43.335Z,17.35
2023-01-12T22:04:11.087Z,17.36
2023-01-12T22:06:40.096Z,17.33
2023-01-12T22:09:07.661Z,17.34
2023-01-12T22:11:35.497Z,17.36
2023-01-12T22:14:03.130Z,17.35
2023-01-12T22:16:30.749Z,17.37
2023-01-12T22:18:58.439Z,17.36
2023-01-12T22:21:26.131Z,17.36
2023-01-12T22:23:55.134Z,17.33
2023-01-12T22:26:22.761Z,17.35
2023-01-12T22:28:50.634Z,17.35
2023-01-12T22:31:18.824Z,17.36
2023-01-12T22:33:46.843Z,17.33
2023-01-12T22:36:14.658Z,17.34
2023-01-12T22:38:42.530Z,17.35
2023-01-12T22:41:12.119Z,17.37
2023-01-12T22:43:41.367Z,17.36
2023-01-12T22:46:15.049Z,17.35
2023-01-12T22:48:42.693Z,17.33
2023-01-12T22:51:10.308Z,17.33
2023-01-12T22:53:37.968Z,17.32
2023-01-12T22:56:05.976Z,17.31
2023-01-12T22:58:35.212Z,17.30
2023-01-12T23:01:03.317Z,17.30
2023-01-12T23:03:31.376Z,17.28
2023-01-12T23:05:59.131Z,17.27
2023-01-12T23:08:26.850Z,17.26
2023-01-12T23:11:02.308Z,17.31
2023-01-12T23:13:30.097Z,17.29
2023-01-12T23:16:01.413Z,17.24
2023-01-12T23:18:29.504Z,17.23
2023-01-12T23:21:00.606Z,17.20
2023-01-12T23:23:28.317Z,17.18
2023-01-12T23:25:55.972Z,17.20
2023-01-12T23:28:23.598Z,17.23
2023-01-12T23:30:51.382Z,17.24
2023-01-12T23:33:20.628Z,17.20
2023-01-12T23:35:48.301Z,17.19
2023-01-12T23:38:16.434Z,17.21
2023-01-12T23:40:44.225Z,17.22
2023-01-12T23:43:11.892Z,17.20
2023-01-12T23:45:39.582Z,17.20
2023-01-12T23:48:08.147Z,17.21
2023-01-12T23:50:37.207Z,17.20
2023-01-12T23:53:04.891Z,17.20
2023-01-12T23:55:32.457Z,17.21
2023-01-12T23:58:00.321Z,17.19
